Terminal Aerodrome Forecast
Issued by NWS Omaha/Valley, NE

Home | Current Version | Previous Version | Text Only | Print | Product List | Glossary On
Versions: 1 2 3 4 5 6 7 8 9 10 11 12 13 14 15 16 17 18 19
000
FTUS43 KOAX 240520
TAFOMA
TAF
KOMA 240520Z 2406/2506 18008KT P6SM SCT150 SCT250
     FM240900 31004KT P6SM SCT250
     FM241500 35009KT P6SM SCT250
     FM242100 36008KT P6SM SCT150 BKN250=

USA.gov is the U.S. government's official web portal to all federal, state and local government web resources and services.